createdAt,value
2018-05-27T00:00:42.463Z,21.60
2018-05-27T00:03:10.068Z,21.50
2018-05-27T00:05:37.709Z,21.50
2018-05-27T00:08:05.340Z,21.50
2018-05-27T00:10:33.762Z,21.40
2018-05-27T00:13:01.409Z,21.40
2018-05-27T00:15:29.035Z,21.40
2018-05-27T00:17:57.423Z,21.40
2018-05-27T00:20:25.037Z,21.30
2018-05-27T00:22:52.598Z,21.30
2018-05-27T00:25:20.193Z,21.30
2018-05-27T00:27:47.808Z,21.30
2018-05-27T00:30:15.399Z,21.20
2018-05-27T00:32:43.080Z,21.20
2018-05-27T00:35:10.762Z,21.20
2018-05-27T00:37:38.388Z,21.10
2018-05-27T00:40:05.980Z,21.10
2018-05-27T00:42:33.600Z,21.10
2018-05-27T00:45:01.972Z,21.00
2018-05-27T00:47:30.332Z,21.00
2018-05-27T00:49:57.987Z,20.90
2018-05-27T00:52:26.310Z,20.90
2018-05-27T00:54:53.924Z,20.90
2018-05-27T00:57:21.567Z,20.90
2018-05-27T00:59:49.180Z,20.90
2018-05-27T01:02:16.786Z,20.80
2018-05-27T01:04:44.404Z,20.80
2018-05-27T01:07:12.045Z,20.80
2018-05-27T01:09:40.243Z,20.70
2018-05-27T01:12:07.847Z,20.70
2018-05-27T01:14:35.441Z,20.70
2018-05-27T01:17:03.065Z,20.60
2018-05-27T01:19:31.461Z,20.60
2018-05-27T01:21:59.063Z,20.60
2018-05-27T01:24:26.664Z,20.60
2018-05-27T01:26:54.239Z,20.60
2018-05-27T01:29:21.915Z,20.50
2018-05-27T01:31:50.265Z,20.50
2018-05-27T01:34:17.944Z,20.50
2018-05-27T01:36:45.616Z,20.40
2018-05-27T01:39:14.016Z,20.40
2018-05-27T01:41:42.601Z,20.40
2018-05-27T01:44:10.986Z,20.30
2018-05-27T01:46:39.930Z,20.30
2018-05-27T01:49:07.551Z,20.30
2018-05-27T01:51:35.165Z,20.30
2018-05-27T01:54:03.655Z,20.20
2018-05-27T01:56:31.315Z,20.20
2018-05-27T01:58:58.921Z,20.20
2018-05-27T02:01:26.531Z,20.20
2018-05-27T02:03:54.197Z,20.30
2018-05-27T02:06:21.801Z,20.20
2018-05-27T02:08:49.410Z,20.10
2018-05-27T02:11:17.780Z,20.10
2018-05-27T02:13:46.142Z,20.10
2018-05-27T02:16:14.074Z,20.10
2018-05-27T02:18:41.684Z,20.00
2018-05-27T02:21:10.029Z,20.00
2018-05-27T02:23:37.660Z,20.00
2018-05-27T02:26:05.284Z,19.90
2018-05-27T02:28:32.919Z,19.90
2018-05-27T02:31:00.527Z,19.90
2018-05-27T02:33:28.130Z,19.90
2018-05-27T02:35:56.460Z,19.90
2018-05-27T02:38:24.085Z,19.90
2018-05-27T02:40:51.705Z,19.90
2018-05-27T02:43:19.301Z,19.80
2018-05-27T02:45:46.890Z,19.80
2018-05-27T02:48:14.557Z,19.80
2018-05-27T02:50:43.230Z,19.80
2018-05-27T02:53:10.809Z,19.70
2018-05-27T02:55:38.572Z,19.70
2018-05-27T02:58:06.155Z,19.60
2018-05-27T03:00:33.876Z,19.70
2018-05-27T03:03:02.234Z,19.50
2018-05-27T03:05:29.849Z,19.50
2018-05-27T03:07:57.458Z,19.50
2018-05-27T03:10:25.081Z,19.50
2018-05-27T03:12:52.719Z,19.50
2018-05-27T03:15:20.325Z,19.40
2018-05-27T03:17:47.962Z,19.40
2018-05-27T03:20:15.575Z,19.40
2018-05-27T03:22:43.165Z,19.40
2018-05-27T03:25:10.775Z,19.40
2018-05-27T03:27:39.154Z,19.40
2018-05-27T03:30:07.556Z,19.30
2018-05-27T03:32:35.185Z,19.40
2018-05-27T03:35:02.799Z,19.30
2018-05-27T03:37:31.528Z,19.30
2018-05-27T03:39:59.374Z,19.30
2018-05-27T03:42:27.825Z,19.20
2018-05-27T03:44:55.425Z,19.20
2018-05-27T03:47:23.010Z,19.20
2018-05-27T03:49:51.407Z,19.30
2018-05-27T03:52:19.758Z,19.30
2018-05-27T03:54:47.379Z,19.30
2018-05-27T03:57:14.983Z,19.30
2018-05-27T03:59:42.621Z,19.30
2018-05-27T04:02:10.239Z,19.30
2018-05-27T04:04:59.423Z,19.30
2018-05-27T04:07:38.955Z,19.30
2018-05-27T04:10:06.547Z,19.30
2018-05-27T04:12:35.168Z,19.30
2018-05-27T04:15:02.760Z,19.30
2018-05-27T04:17:31.135Z,19.30
2018-05-27T04:19:58.718Z,19.30
2018-05-27T04:22:26.317Z,19.30
2018-05-27T04:24:53.956Z,19.30
2018-05-27T04:27:21.562Z,19.30
2018-05-27T04:29:49.148Z,19.30
2018-05-27T04:32:16.876Z,19.30
2018-05-27T04:34:44.475Z,19.40
2018-05-27T04:37:12.085Z,19.40
2018-05-27T04:39:39.698Z,19.40
2018-05-27T04:42:07.401Z,19.40
2018-05-27T04:44:35.767Z,19.40
2018-05-27T04:47:03.653Z,19.40
2018-05-27T04:49:32.023Z,19.50
2018-05-27T04:51:59.615Z,19.50
2018-05-27T04:54:27.985Z,19.60
2018-05-27T04:56:56.355Z,19.60
2018-05-27T04:59:23.999Z,19.60
2018-05-27T05:01:51.591Z,19.60
2018-05-27T05:04:19.957Z,19.70
2018-05-27T05:06:47.553Z,19.70
2018-05-27T05:09:15.973Z,19.80
2018-05-27T05:11:43.612Z,19.80
2018-05-27T05:14:11.201Z,19.90
2018-05-27T05:16:38.820Z,19.90
2018-05-27T05:19:06.456Z,20.00
2018-05-27T05:21:34.100Z,20.00
2018-05-27T05:24:01.693Z,20.00
2018-05-27T05:26:29.292Z,20.00
2018-05-27T05:28:58.417Z,20.10
2018-05-27T05:31:26.019Z,20.10
2018-05-27T05:33:53.637Z,20.10
2018-05-27T05:36:22.017Z,20.10
2018-05-27T05:38:49.662Z,20.10
2018-05-27T05:41:17.296Z,20.10
2018-05-27T05:43:44.983Z,20.10
2018-05-27T05:46:12.736Z,20.00
2018-05-27T05:48:40.357Z,20.00
2018-05-27T05:51:07.960Z,20.00
2018-05-27T05:53:35.565Z,20.10
2018-05-27T05:56:03.178Z,20.10
2018-05-27T05:58:30.757Z,20.10
2018-05-27T06:00:58.373Z,20.10
2018-05-27T06:03:26.743Z,20.10
2018-05-27T06:05:55.115Z,20.10
2018-05-27T06:08:23.509Z,20.10
2018-05-27T06:10:51.883Z,20.10
2018-05-27T06:13:19.454Z,20.10
2018-05-27T06:15:47.063Z,20.30
2018-05-27T06:18:14.693Z,20.40
2018-05-27T06:20:43.809Z,20.80
2018-05-27T06:23:11.400Z,20.80
2018-05-27T06:25:39.868Z,21.10
2018-05-27T06:28:07.472Z,21.20
2018-05-27T06:30:35.072Z,21.40
2018-05-27T06:33:03.442Z,21.60
2018-05-27T06:35:31.082Z,21.60
2018-05-27T06:37:58.658Z,21.70
2018-05-27T06:40:26.257Z,21.60
2018-05-27T06:42:55.288Z,21.60
2018-05-27T06:45:22.908Z,21.60
2018-05-27T06:47:50.530Z,21.70
2018-05-27T06:50:18.143Z,21.80
2018-05-27T06:52:46.505Z,22.10
2018-05-27T06:55:14.174Z,22.10
2018-05-27T06:57:41.816Z,22.20
2018-05-27T07:00:09.393Z,22.30
2018-05-27T07:02:37.029Z,22.40
2018-05-27T07:05:04.642Z,22.60
2018-05-27T07:07:33.095Z,22.70
2018-05-27T07:10:00.702Z,22.80
2018-05-27T07:12:28.310Z,22.80
2018-05-27T07:14:57.682Z,22.70
2018-05-27T07:17:27.104Z,22.80
2018-05-27T07:19:54.851Z,22.80
2018-05-27T07:22:23.258Z,22.80
2018-05-27T07:24:50.922Z,22.80
2018-05-27T07:27:18.542Z,22.90
2018-05-27T07:29:46.143Z,22.90
2018-05-27T07:32:14.379Z,22.90
2018-05-27T07:34:41.956Z,22.90
2018-05-27T07:37:09.547Z,22.80
2018-05-27T07:39:37.964Z,22.70
2018-05-27T07:42:05.578Z,22.70
2018-05-27T07:44:33.973Z,22.90
2018-05-27T07:47:01.569Z,22.90
2018-05-27T07:49:29.181Z,23.10
2018-05-27T07:51:56.794Z,23.10
2018-05-27T07:54:24.405Z,23.20
2018-05-27T07:56:52.004Z,23.10
2018-05-27T07:59:20.347Z,23.30
2018-05-27T08:01:47.942Z,23.20
2018-05-27T08:04:16.358Z,23.30
2018-05-27T08:06:43.975Z,23.30
2018-05-27T08:09:12.368Z,23.50
2018-05-27T08:11:40.060Z,23.50
2018-05-27T08:14:08.439Z,23.50
2018-05-27T08:16:36.803Z,23.60
2018-05-27T08:19:04.397Z,23.60
2018-05-27T08:21:32.392Z,23.40
2018-05-27T08:24:00.019Z,23.40
2018-05-27T08:26:29.303Z,23.60
2018-05-27T08:28:56.919Z,23.60
2018-05-27T08:31:24.529Z,23.70
2018-05-27T08:33:52.113Z,23.90
2018-05-27T08:36:19.740Z,24.00
2018-05-27T08:38:47.409Z,24.20
2018-05-27T08:41:15.063Z,24.40
2018-05-27T08:43:43.420Z,24.50
2018-05-27T08:46:11.246Z,24.70
2018-05-27T08:48:38.911Z,24.60
2018-05-27T08:51:06.547Z,24.80
2018-05-27T08:53:34.169Z,25.10
2018-05-27T08:56:02.524Z,25.40
2018-05-27T08:58:30.215Z,25.40
2018-05-27T09:00:58.620Z,25.40
2018-05-27T09:03:26.262Z,25.40
2018-05-27T09:05:54.652Z,25.20
2018-05-27T09:08:23.102Z,25.20
2018-05-27T09:10:50.706Z,25.20
2018-05-27T09:13:19.079Z,25.20
2018-05-27T09:15:46.713Z,25.20
2018-05-27T09:18:14.349Z,25.40
2018-05-27T09:20:41.995Z,25.80
2018-05-27T09:23:09.637Z,26.10
2018-05-27T09:25:38.067Z,26.50
2018-05-27T09:28:05.717Z,26.50
2018-05-27T09:30:33.403Z,26.60
2018-05-27T09:33:03.867Z,26.50
2018-05-27T09:35:31.607Z,26.40
2018-05-27T09:37:59.263Z,26.70
2018-05-27T09:40:26.876Z,26.50
2018-05-27T09:42:54.470Z,26.60
2018-05-27T09:45:22.143Z,26.50
2018-05-27T09:47:49.766Z,26.60
2018-05-27T09:50:17.406Z,26.70
2018-05-27T09:52:45.031Z,26.70
2018-05-27T09:55:13.411Z,27.20
2018-05-27T09:57:41.273Z,27.10
2018-05-27T10:00:08.992Z,27.00
2018-05-27T10:02:36.629Z,26.70
2018-05-27T10:05:05.143Z,26.60
2018-05-27T10:07:33.523Z,26.50
2018-05-27T10:10:01.185Z,26.60
2018-05-27T10:12:29.840Z,26.50
2018-05-27T10:14:57.475Z,26.50
2018-05-27T10:17:25.067Z,26.50
2018-05-27T10:19:53.449Z,27.00
2018-05-27T10:22:21.871Z,27.20
2018-05-27T10:24:49.533Z,27.20
2018-05-27T10:27:17.344Z,27.40
2018-05-27T10:29:46.038Z,27.60
2018-05-27T10:32:13.712Z,27.80
2018-05-27T10:34:41.866Z,27.80
2018-05-27T10:37:09.484Z,27.90
2018-05-27T10:39:37.117Z,27.80
2018-05-27T10:42:04.826Z,27.90
2018-05-27T10:44:32.487Z,28.00
2018-05-27T10:47:00.157Z,28.00
2018-05-27T10:49:27.723Z,27.80
2018-05-27T10:51:55.488Z,27.80
2018-05-27T10:54:24.168Z,27.60
2018-05-27T10:56:51.768Z,27.60
2018-05-27T10:59:19.436Z,27.70
2018-05-27T11:01:47.122Z,27.80
2018-05-27T11:04:14.736Z,27.90
2018-05-27T11:06:43.070Z,27.90
2018-05-27T11:09:12.680Z,27.80
2018-05-27T11:11:40.411Z,27.80
2018-05-27T11:14:08.201Z,27.70
2018-05-27T11:16:35.808Z,27.60
2018-05-27T11:19:03.470Z,27.50
2018-05-27T11:21:31.147Z,27.40
2018-05-27T11:23:59.536Z,27.20
2018-05-27T11:26:27.188Z,27.10
2018-05-27T11:28:54.797Z,27.10
2018-05-27T11:31:22.523Z,27.00
2018-05-27T11:33:50.193Z,27.00
2018-05-27T11:36:17.814Z,26.90
2018-05-27T11:38:45.440Z,26.80
2018-05-27T11:41:13.024Z,26.70
2018-05-27T11:43:40.624Z,26.60
2018-05-27T11:46:08.491Z,26.30
2018-05-27T11:48:36.120Z,26.10
2018-05-27T11:51:03.776Z,25.80
2018-05-27T11:53:31.869Z,25.60
2018-05-27T11:55:59.549Z,25.30
2018-05-27T11:58:27.186Z,24.90
2018-05-27T12:00:55.024Z,24.60
2018-05-27T12:03:22.726Z,24.50
2018-05-27T12:05:50.331Z,24.40
2018-05-27T12:08:17.997Z,24.20
2018-05-27T12:10:48.067Z,24.00
2018-05-27T12:13:16.550Z,23.60
2018-05-27T12:15:47.965Z,23.50
2018-05-27T12:18:18.221Z,23.50
2018-05-27T12:20:46.051Z,23.40
2018-05-27T12:23:13.789Z,23.30
2018-05-27T12:25:42.526Z,23.40
2018-05-27T12:28:10.563Z,23.40
2018-05-27T12:30:38.372Z,23.60
2018-05-27T12:33:06.998Z,23.80
2018-05-27T12:35:35.878Z,24.30
2018-05-27T12:38:03.546Z,24.20
2018-05-27T12:40:31.978Z,24.50
2018-05-27T12:42:59.616Z,24.40
2018-05-27T12:45:27.239Z,24.50
2018-05-27T12:47:54.870Z,24.60
2018-05-27T12:50:22.490Z,24.70
2018-05-27T12:52:50.090Z,24.70
2018-05-27T12:55:17.703Z,24.60
2018-05-27T12:57:45.317Z,24.70
2018-05-27T13:00:12.917Z,24.50
2018-05-27T13:02:40.603Z,24.50
2018-05-27T13:05:08.179Z,24.40
2018-05-27T13:07:36.634Z,24.10
2018-05-27T13:10:04.329Z,24.10
2018-05-27T13:12:32.848Z,24.00
2018-05-27T13:15:00.658Z,23.90
2018-05-27T13:17:28.338Z,23.80
2018-05-27T13:19:56.894Z,23.80
2018-05-27T13:22:24.518Z,23.60
2018-05-27T13:24:52.184Z,23.50
2018-05-27T13:27:20.756Z,23.40
2018-05-27T13:29:48.760Z,23.20
2018-05-27T13:32:17.052Z,23.10
2018-05-27T13:34:45.085Z,22.90
2018-05-27T13:37:13.051Z,22.90
2018-05-27T13:39:40.713Z,22.70
2018-05-27T13:42:09.158Z,22.60
2018-05-27T13:44:38.246Z,22.60
2018-05-27T13:47:05.918Z,22.50
2018-05-27T13:49:33.657Z,22.50
2018-05-27T13:52:01.314Z,22.60
2018-05-27T13:54:30.640Z,22.70
2018-05-27T13:56:58.336Z,22.70
2018-05-27T13:59:25.958Z,22.70
2018-05-27T14:01:54.373Z,22.70
2018-05-27T14:04:23.830Z,22.60
2018-05-27T14:06:52.262Z,22.20
2018-05-27T14:09:19.995Z,22.20
2018-05-27T14:11:48.475Z,21.60
2018-05-27T14:14:16.841Z,21.30
2018-05-27T14:16:44.559Z,21.30
2018-05-27T14:19:12.182Z,21.10
2018-05-27T14:21:39.768Z,21.00
2018-05-27T14:24:07.355Z,21.00
2018-05-27T14:26:34.971Z,21.00
2018-05-27T14:29:02.580Z,20.90
2018-05-27T14:31:30.958Z,20.80
2018-05-27T14:33:59.351Z,20.70
2018-05-27T14:36:27.739Z,20.60
2018-05-27T14:38:55.366Z,20.50
2018-05-27T14:41:23.802Z,20.40
2018-05-27T14:43:51.438Z,20.40
2018-05-27T14:46:19.790Z,20.30
2018-05-27T14:48:47.412Z,20.20
2018-05-27T14:51:15.027Z,20.20
2018-05-27T14:53:42.657Z,20.10
2018-05-27T14:56:10.280Z,20.20
2018-05-27T14:58:37.909Z,20.10
2018-05-27T15:01:05.502Z,20.10
2018-05-27T15:03:33.201Z,20.00
2018-05-27T15:06:00.863Z,19.90
2018-05-27T15:08:29.241Z,19.80
2018-05-27T15:10:56.859Z,19.80
2018-05-27T15:13:24.469Z,19.80
2018-05-27T15:15:52.907Z,19.80
2018-05-27T15:18:20.575Z,19.80
2018-05-27T15:20:48.194Z,19.90
2018-05-27T15:23:15.847Z,19.90
2018-05-27T15:25:44.203Z,19.90
2018-05-27T15:28:11.830Z,19.90
2018-05-27T15:30:39.470Z,19.90
2018-05-27T15:33:07.075Z,19.90
2018-05-27T15:35:34.679Z,19.90
2018-05-27T15:38:02.298Z,19.90
2018-05-27T15:40:29.945Z,19.90
2018-05-27T15:42:57.740Z,19.90
2018-05-27T15:45:25.371Z,20.00
2018-05-27T15:47:53.009Z,20.00
2018-05-27T15:50:20.618Z,20.10
2018-05-27T15:52:48.717Z,20.20
2018-05-27T15:55:16.443Z,20.40
2018-05-27T15:57:44.783Z,20.60
2018-05-27T16:00:12.436Z,20.60
2018-05-27T16:02:40.070Z,20.70
2018-05-27T16:05:07.680Z,20.80
2018-05-27T16:07:35.322Z,20.80
2018-05-27T16:10:02.965Z,21.00
2018-05-27T16:12:30.565Z,21.10
2018-05-27T16:14:58.208Z,21.30
2018-05-27T16:17:25.844Z,21.40
2018-05-27T16:19:54.266Z,21.70
2018-05-27T16:22:21.847Z,21.70
2018-05-27T16:24:49.424Z,21.80
2018-05-27T16:27:17.964Z,21.90
2018-05-27T16:29:45.582Z,22.20
2018-05-27T16:32:13.179Z,22.40
2018-05-27T16:34:41.531Z,22.70
2018-05-27T16:37:09.133Z,22.70
2018-05-27T16:39:37.555Z,22.70
2018-05-27T16:42:05.139Z,22.70
2018-05-27T16:44:32.834Z,22.70
2018-05-27T16:47:01.192Z,22.70
2018-05-27T16:49:28.825Z,22.70
2018-05-27T16:51:56.417Z,22.70
2018-05-27T16:54:24.039Z,22.70
2018-05-27T16:56:51.684Z,22.90
2018-05-27T16:59:20.078Z,22.90
2018-05-27T17:01:48.489Z,23.00
2018-05-27T17:04:17.118Z,23.00
2018-05-27T17:06:44.822Z,23.10
2018-05-27T17:09:12.460Z,23.30
2018-05-27T17:11:40.861Z,23.30
2018-05-27T17:14:08.660Z,23.30
2018-05-27T17:16:36.319Z,23.30
2018-05-27T17:19:04.026Z,23.20
2018-05-27T17:21:31.682Z,23.20
2018-05-27T17:23:59.321Z,23.20
2018-05-27T17:26:27.045Z,23.20
2018-05-27T17:28:55.442Z,23.20
2018-05-27T17:31:23.859Z,23.20
2018-05-27T17:33:51.541Z,23.20
2018-05-27T17:36:19.227Z,23.20
2018-05-27T17:38:46.820Z,23.20
2018-05-27T17:41:15.268Z,23.20
2018-05-27T17:43:42.952Z,23.20
2018-05-27T17:46:10.604Z,23.20
2018-05-27T17:48:38.242Z,23.10
2018-05-27T17:51:05.842Z,23.10
2018-05-27T17:53:33.430Z,23.00
2018-05-27T17:56:01.932Z,22.90
2018-05-27T17:58:29.618Z,22.90
2018-05-27T18:00:57.277Z,22.80
2018-05-27T18:03:24.919Z,22.80
2018-05-27T18:05:53.173Z,22.80
2018-05-27T18:08:20.831Z,22.80
2018-05-27T18:10:48.509Z,22.80
2018-05-27T18:13:16.137Z,22.70
2018-05-27T18:15:43.756Z,22.60
2018-05-27T18:18:11.394Z,22.50
2018-05-27T18:20:38.974Z,22.30
2018-05-27T18:23:06.568Z,22.20
2018-05-27T18:25:34.968Z,22.10
2018-05-27T18:28:02.581Z,22.10
2018-05-27T18:30:30.209Z,22.00
2018-05-27T18:32:57.832Z,21.90
2018-05-27T18:35:25.455Z,21.90
2018-05-27T18:37:53.131Z,21.90
2018-05-27T18:40:20.868Z,21.80
2018-05-27T18:42:48.545Z,21.80
2018-05-27T18:45:16.220Z,21.70
2018-05-27T18:47:44.499Z,21.60
2018-05-27T18:50:12.103Z,21.50
2018-05-27T18:52:40.505Z,21.30
2018-05-27T18:55:09.021Z,21.30
2018-05-27T18:57:36.655Z,21.20
2018-05-27T19:00:05.101Z,21.10
2018-05-27T19:02:32.792Z,21.10
2018-05-27T19:05:00.444Z,21.00
2018-05-27T19:07:28.088Z,21.00
2018-05-27T19:09:55.777Z,20.90
2018-05-27T19:12:23.439Z,20.90
2018-05-27T19:14:51.099Z,20.80
2018-05-27T19:17:18.841Z,20.80
2018-05-27T19:19:47.222Z,20.70
2018-05-27T19:22:14.920Z,20.60
2018-05-27T19:24:49.123Z,20.60
2018-05-27T19:27:16.997Z,20.60
2018-05-27T19:29:44.574Z,20.50
2018-05-27T19:32:12.187Z,20.50
2018-05-27T19:34:39.803Z,20.50
2018-05-27T19:37:07.411Z,20.50
2018-05-27T19:39:35.793Z,20.30
2018-05-27T19:42:03.365Z,20.30
2018-05-27T19:44:30.967Z,20.30
2018-05-27T19:46:59.313Z,20.30
2018-05-27T19:49:27.682Z,20.30
2018-05-27T19:51:55.273Z,20.20
2018-05-27T19:54:22.844Z,20.20
2018-05-27T19:56:50.413Z,20.10
2018-05-27T19:59:19.939Z,20.10
2018-05-27T20:01:48.349Z,20.10
2018-05-27T20:04:16.820Z,20.00
2018-05-27T20:06:44.382Z,20.00
2018-05-27T20:09:12.781Z,19.90
2018-05-27T20:11:40.409Z,19.90
2018-05-27T20:14:08.009Z,19.80
2018-05-27T20:16:35.634Z,19.80
2018-05-27T20:19:03.465Z,19.80
2018-05-27T20:21:32.129Z,19.80
2018-05-27T20:24:00.586Z,19.80
2018-05-27T20:26:28.235Z,19.70
2018-05-27T20:28:56.582Z,19.60
2018-05-27T20:31:24.163Z,19.60
2018-05-27T20:33:52.520Z,19.60
2018-05-27T20:36:20.146Z,19.60
2018-05-27T20:38:48.066Z,19.60
2018-05-27T20:41:15.664Z,19.50
2018-05-27T20:43:44.138Z,19.50
2018-05-27T20:46:12.483Z,19.50
2018-05-27T20:48:40.061Z,19.50
2018-05-27T20:51:21.199Z,19.50
2018-05-27T20:53:49.018Z,19.50
2018-05-27T20:56:16.638Z,19.50
2018-05-27T20:58:44.244Z,19.50
2018-05-27T21:01:11.830Z,19.40
2018-05-27T21:03:39.445Z,19.40
2018-05-27T21:06:07.013Z,19.40
2018-05-27T21:08:34.619Z,19.40
2018-05-27T21:11:02.965Z,19.30
2018-05-27T21:13:30.547Z,19.30
2018-05-27T21:15:58.119Z,19.30
2018-05-27T21:18:25.685Z,19.20
2018-05-27T21:20:53.284Z,19.20
2018-05-27T21:23:20.846Z,19.10
2018-05-27T21:25:48.436Z,19.10
2018-05-27T21:28:16.013Z,19.10
2018-05-27T21:30:43.586Z,19.10
2018-05-27T21:33:11.872Z,19.10
2018-05-27T21:35:39.431Z,19.10
2018-05-27T21:38:07.076Z,19.10
2018-05-27T21:40:34.670Z,19.10
2018-05-27T21:43:02.259Z,19.10
2018-05-27T21:45:29.856Z,19.10
2018-05-27T21:47:57.460Z,19.00
2018-05-27T21:50:25.068Z,19.10
2018-05-27T21:52:53.424Z,19.00
2018-05-27T21:55:21.008Z,19.00
2018-05-27T21:57:49.363Z,19.00
2018-05-27T22:00:16.945Z,19.00
2018-05-27T22:02:44.553Z,19.00
2018-05-27T22:05:12.149Z,19.00
2018-05-27T22:07:39.739Z,19.00
2018-05-27T22:10:07.328Z,18.90
2018-05-27T22:12:34.898Z,18.90
2018-05-27T22:15:02.492Z,18.90
2018-05-27T22:17:34.549Z,18.90
2018-05-27T22:20:02.150Z,18.90
2018-05-27T22:22:30.514Z,18.80
2018-05-27T22:24:58.060Z,18.80
2018-05-27T22:27:25.649Z,18.80
2018-05-27T22:29:53.242Z,18.80
2018-05-27T22:32:20.838Z,18.90
2018-05-27T22:34:48.417Z,18.90
2018-05-27T22:37:16.005Z,18.90
2018-05-27T22:39:44.353Z,18.80
2018-05-27T22:42:11.953Z,18.90
2018-05-27T22:44:39.539Z,18.90
2018-05-27T22:47:07.995Z,18.80
2018-05-27T22:49:35.577Z,18.80
2018-05-27T22:52:03.153Z,18.80
2018-05-27T22:54:30.740Z,18.80
2018-05-27T22:56:59.153Z,18.80
2018-05-27T22:59:26.723Z,18.80
2018-05-27T23:01:54.309Z,18.70
2018-05-27T23:04:21.926Z,18.70
2018-05-27T23:06:50.280Z,18.70
2018-05-27T23:09:17.856Z,18.70
2018-05-27T23:11:45.435Z,18.70
2018-05-27T23:14:13.822Z,18.70
2018-05-27T23:16:42.973Z,18.60
2018-05-27T23:19:10.555Z,18.60
2018-05-27T23:21:38.136Z,18.60
2018-05-27T23:24:05.730Z,18.60
2018-05-27T23:26:33.339Z,18.50
2018-05-27T23:29:00.923Z,18.50
2018-05-27T23:31:28.515Z,18.50
2018-05-27T23:33:56.973Z,18.60
2018-05-27T23:36:25.737Z,18.60
2018-05-27T23:38:53.419Z,18.60
2018-05-27T23:41:20.995Z,18.60
2018-05-27T23:43:48.583Z,18.60
2018-05-27T23:46:16.930Z,18.60
2018-05-27T23:48:44.512Z,18.60
2018-05-27T23:51:13.452Z,18.70
2018-05-27T23:53:41.451Z,18.70
2018-05-27T23:56:09.038Z,18.70
2018-05-27T23:58:36.608Z,18.60
